sensor_id;sensor_type;location;lat;lon;timestamp;pressure;altitude;pressure_sealevel;temperature;humidity
36354;BME280;22383;51.114;13.666;2023-03-12T00:00:05;66921.16;;;-2.54;100.00
36354;BME280;22383;51.114;13.666;2023-03-12T00:02:36;66922.84;;;-2.52;100.00
36354;BME280;22383;51.114;13.666;2023-03-12T00:05:04;66915.53;;;-2.59;100.00
36354;BME280;22383;51.114;13.666;2023-03-12T00:07:32;66918.91;;;-2.56;100.00
36354;BME280;22383;51.114;13.666;2023-03-12T00:09:59;66917.78;;;-2.57;100.00
36354;BME280;22383;51.114;13.666;2023-03-12T00:12:27;66907.69;;;-2.66;100.00
36354;BME280;22383;51.114;13.666;2023-03-12T00:14:54;66909.38;;;-2.64;100.00
36354;BME280;22383;51.114;13.666;2023-03-12T00:17:22;66920.03;;;-2.55;100.00
36354;BME280;22383;51.114;13.666;2023-03-12T00:19:51;66923.59;;;-2.49;100.00
36354;BME280;22383;51.114;13.666;2023-03-12T00:22:19;66921.16;;;-2.54;100.00
36354;BME280;22383;51.114;13.666;2023-03-12T00:24:53;66868.94;;;-2.59;100.00
36354;BME280;22383;51.114;13.666;2023-03-12T00:27:22;66926.19;;;-2.49;100.00
36354;BME280;22383;51.114;13.666;2023-03-12T00:29:50;66916.88;;;-2.55;100.00
36354;BME280;22383;51.114;13.666;2023-03-12T00:32:17;66911.47;;;-2.58;100.00
36354;BME280;22383;51.114;13.666;2023-03-12T00:34:53;66919.13;;;-2.53;100.00
36354;BME280;22383;51.114;13.666;2023-03-12T00:37:21;66921.16;;;-2.54;100.00
36354;BME280;22383;51.114;13.666;2023-03-12T00:39:48;66913.16;;;-2.56;100.00
36354;BME280;22383;51.114;13.666;2023-03-12T00:42:16;66915.00;;;-2.59;100.00
36354;BME280;22383;51.114;13.666;2023-03-12T00:44:44;66921.72;;;-2.53;100.00
36354;BME280;22383;51.114;13.666;2023-03-12T00:47:12;66870.03;;;-2.58;100.00
36354;BME280;22383;51.114;13.666;2023-03-12T00:49:40;66865.00;;;-2.62;100.00
36354;BME280;22383;51.114;13.666;2023-03-12T00:52:07;66913.84;;;-2.60;100.00
36354;BME280;22383;51.114;13.666;2023-03-12T00:54:35;66906.22;;;-2.65;100.00
36354;BME280;22383;51.114;13.666;2023-03-12T00:57:02;66906.56;;;-2.67;100.00
36354;BME280;22383;51.114;13.666;2023-03-12T00:59:30;66906.91;;;-2.69;100.00
36354;BME280;22383;51.114;13.666;2023-03-12T01:01:57;66899.16;;;-2.69;100.00
36354;BME280;22383;51.114;13.666;2023-03-12T01:04:24;66900.06;;;-2.71;100.00
36354;BME280;22383;51.114;13.666;2023-03-12T01:06:54;66902.09;;;-2.71;100.00
36354;BME280;22383;51.114;13.666;2023-03-12T01:09:22;66898.72;;;-2.74;100.00
36354;BME280;22383;51.114;13.666;2023-03-12T01:11:50;66895.78;;;-2.72;100.00
36354;BME280;22383;51.114;13.666;2023-03-12T01:14:18;66899.84;;;-2.73;100.00
36354;BME280;22383;51.114;13.666;2023-03-12T01:16:46;66895.56;;;-2.75;100.00
36354;BME280;22383;51.114;13.666;2023-03-12T01:19:16;66899.84;;;-2.73;100.00
36354;BME280;22383;51.114;13.666;2023-03-12T01:21:43;66903.44;;;-2.68;100.00
36354;BME280;22383;51.114;13.666;2023-03-12T01:24:10;66904.88;;;-2.69;100.00
36354;BME280;22383;51.114;13.666;2023-03-12T01:26:38;66911.81;;;-2.60;100.00
36354;BME280;22383;51.114;13.666;2023-03-12T01:29:05;66904.53;;;-2.67;100.00
36354;BME280;22383;51.114;13.666;2023-03-12T01:31:33;66904.88;;;-2.69;100.00
36354;BME280;22383;51.114;13.666;2023-03-12T01:34:03;66898.38;;;-2.72;100.00
36354;BME280;22383;51.114;13.666;2023-03-12T01:36:31;66902.09;;;-2.71;100.00
36354;BME280;22383;51.114;13.666;2023-03-12T01:38:58;66904.88;;;-2.69;100.00
36354;BME280;22383;51.114;13.666;2023-03-12T01:41:26;66907.91;;;-2.63;100.00
36354;BME280;22383;51.114;13.666;2023-03-12T01:43:54;66907.13;;;-2.67;100.00
36354;BME280;22383;51.114;13.666;2023-03-12T01:49:06;66894.78;;;-2.78;100.00
36354;BME280;22383;51.114;13.666;2023-03-12T01:51:39;66889.97;;;-2.80;100.00
36354;BME280;22383;51.114;13.666;2023-03-12T01:54:13;66887.72;;;-2.82;100.00
36354;BME280;22383;51.114;13.666;2023-03-12T01:56:42;66889.63;;;-2.78;100.00
36354;BME280;22383;51.114;13.666;2023-03-12T01:59:22;66897.03;;;-2.76;100.00
36354;BME280;22383;51.114;13.666;2023-03-12T02:01:51;66891.31;;;-2.76;100.00
36354;BME280;22383;51.114;13.666;2023-03-12T02:04:21;66848.41;;;-2.75;100.00
36354;BME280;22383;51.114;13.666;2023-03-12T02:07:11;66902.66;;;-2.71;100.00
36354;BME280;22383;51.114;13.666;2023-03-12T02:09:42;66903.78;;;-2.70;100.00
36354;BME280;22383;51.114;13.666;2023-03-12T02:12:11;66900.19;;;-2.75;100.00
36354;BME280;22383;51.114;13.666;2023-03-12T02:14:39;66898.94;;;-2.72;100.00
36354;BME280;22383;51.114;13.666;2023-03-12T02:17:08;66902.09;;;-2.71;100.00
36354;BME280;22383;51.114;13.666;2023-03-12T02:22:34;66896.13;;;-2.74;100.00
36354;BME280;22383;51.114;13.666;2023-03-12T02:27:59;66898.16;;;-2.75;100.00
36354;BME280;22383;51.114;13.666;2023-03-12T02:30:30;66898.72;;;-2.74;100.00
36354;BME280;22383;51.114;13.666;2023-03-12T02:33:05;66898.72;;;-2.74;100.00
36354;BME280;22383;51.114;13.666;2023-03-12T02:35:33;66891.50;;;-2.74;100.00
36354;BME280;22383;51.114;13.666;2023-03-12T02:38:02;66897.03;;;-2.76;100.00
36354;BME280;22383;51.114;13.666;2023-03-12T02:40:35;66899.28;;;-2.74;100.00
36354;BME280;22383;51.114;13.666;2023-03-12T02:43:08;66860.50;;;-2.67;100.00
36354;BME280;22383;51.114;13.666;2023-03-12T02:45:37;66899.84;;;-2.73;100.00
36354;BME280;22383;51.114;13.666;2023-03-12T02:48:07;66900.97;;;-2.72;100.00
36354;BME280;22383;51.114;13.666;2023-03-12T02:50:35;66895.78;;;-2.72;100.00
36354;BME280;22383;51.114;13.666;2023-03-12T02:53:04;66903.97;;;-2.67;100.00
36354;BME280;22383;51.114;13.666;2023-03-12T02:55:33;66901.53;;;-2.72;100.00
36354;BME280;22383;51.114;13.666;2023-03-12T02:58:00;66895.00;;;-2.75;100.00
36354;BME280;22383;51.114;13.666;2023-03-12T03:00:29;66893.34;;;-2.77;100.00
36354;BME280;22383;51.114;13.666;2023-03-12T03:02:59;66902.09;;;-2.71;100.00
36354;BME280;22383;51.114;13.666;2023-03-12T03:05:27;66902.66;;;-2.71;100.00
36354;BME280;22383;51.114;13.666;2023-03-12T03:07:54;66903.19;;;-2.70;100.00
36354;BME280;22383;51.114;13.666;2023-03-12T03:10:22;66905.09;;;-2.66;100.00
36354;BME280;22383;51.114;13.666;2023-03-12T03:12:49;66868.94;;;-2.59;100.00
36354;BME280;22383;51.114;13.666;2023-03-12T03:15:17;66905.09;;;-2.66;100.00
36354;BME280;22383;51.114;13.666;2023-03-12T03:17:45;66862.78;;;-2.64;100.00
36354;BME280;22383;51.114;13.666;2023-03-12T03:20:12;66913.50;;;-2.58;100.00
36354;BME280;22383;51.114;13.666;2023-03-12T03:22:40;66911.81;;;-2.60;100.00
36354;BME280;22383;51.114;13.666;2023-03-12T03:25:09;66910.13;;;-2.61;100.00
36354;BME280;22383;51.114;13.666;2023-03-12T03:27:36;66916.66;;;-2.58;100.00
36354;BME280;22383;51.114;13.666;2023-03-12T03:30:04;66906.56;;;-2.67;100.00
36354;BME280;22383;51.114;13.666;2023-03-12T03:32:37;66903.97;;;-2.67;100.00
36354;BME280;22383;51.114;13.666;2023-03-12T03:35:05;66895.00;;;-2.75;100.00
36354;BME280;22383;51.114;13.666;2023-03-12T03:37:32;66901.19;;;-2.70;100.00
36354;BME280;22383;51.114;13.666;2023-03-12T03:40:00;66903.78;;;-2.70;100.00
36354;BME280;22383;51.114;13.666;2023-03-12T03:42:28;66897.25;;;-2.73;100.00
36354;BME280;22383;51.114;13.666;2023-03-12T03:44:55;66900.41;;;-2.73;100.00
36354;BME280;22383;51.114;13.666;2023-03-12T03:47:22;66850.66;;;-2.73;100.00
36354;BME280;22383;51.114;13.666;2023-03-12T03:49:50;66892.00;;;-2.80;100.00
36354;BME280;22383;51.114;13.666;2023-03-12T03:52:17;66890.09;;;-2.85;100.00
36354;BME280;22383;51.114;13.666;2023-03-12T03:54:45;66894.44;;;-2.76;100.00
36354;BME280;22383;51.114;13.666;2023-03-12T03:57:12;66892.75;;;-2.77;100.00
36354;BME280;22383;51.114;13.666;2023-03-12T03:59:39;66845.41;;;-2.80;100.00
36354;BME280;22383;51.114;13.666;2023-03-12T04:02:07;66891.31;;;-2.76;100.00
36354;BME280;22383;51.114;13.666;2023-03-12T04:04:37;66854.72;;;-2.74;100.00
36354;BME280;22383;51.114;13.666;2023-03-12T04:07:06;66886.41;;;-2.86;100.00
36354;BME280;22383;51.114;13.666;2023-03-12T04:09:34;66884.91;;;-2.85;100.00
36354;BME280;22383;51.114;13.666;2023-03-12T04:12:01;66886.94;;;-2.85;100.00
36354;BME280;22383;51.114;13.666;2023-03-12T04:14:29;66879.66;;;-2.92;100.00
36354;BME280;22383;51.114;13.666;2023-03-12T04:16:56;66883.03;;;-2.89;100.00
36354;BME280;22383;51.114;13.666;2023-03-12T04:19:24;66887.50;;;-2.85;100.00
36354;BME280;22383;51.114;13.666;2023-03-12T04:21:52;66896.47;;;-2.76;100.00
36354;BME280;22383;51.114;13.666;2023-03-12T04:24:21;66880.66;;;-2.86;100.00
36354;BME280;22383;51.114;13.666;2023-03-12T04:26:48;66881.00;;;-2.88;100.00
36354;BME280;22383;51.114;13.666;2023-03-12T04:29:18;66883.03;;;-2.89;100.00
36354;BME280;22383;51.114;13.666;2023-03-12T04:31:46;66880.78;;;-2.91;100.00
36354;BME280;22383;51.114;13.666;2023-03-12T04:34:14;66877.41;;;-2.94;100.00
36354;BME280;22383;51.114;13.666;2023-03-12T04:36:45;66826.69;;;-3.00;100.00
36354;BME280;22383;51.114;13.666;2023-03-12T04:39:16;66821.88;;;-3.02;100.00
36354;BME280;22383;51.114;13.666;2023-03-12T04:41:47;66866.22;;;-3.04;100.00
36354;BME280;22383;51.114;13.666;2023-03-12T04:44:15;66866.75;;;-3.04;100.00
36354;BME280;22383;51.114;13.666;2023-03-12T04:46:43;66864.97;;;-3.00;100.00
36354;BME280;22383;51.114;13.666;2023-03-12T04:49:17;66857.81;;;-3.12;100.00
36354;BME280;22383;51.114;13.666;2023-03-12T04:51:45;66855.00;;;-3.14;100.00
36354;BME280;22383;51.114;13.666;2023-03-12T04:54:12;66815.72;;;-3.08;100.00
36354;BME280;22383;51.114;13.666;2023-03-12T04:56:41;66867.91;;;-3.02;100.00
36354;BME280;22383;51.114;13.666;2023-03-12T04:59:09;66862.28;;;-3.08;100.00
36354;BME280;22383;51.114;13.666;2023-03-12T05:01:37;66809.56;;;-3.13;100.00
36354;BME280;22383;51.114;13.666;2023-03-12T05:04:11;66869.56;;;-3.01;100.00
36354;BME280;22383;51.114;13.666;2023-03-12T05:06:38;66865.66;;;-3.05;100.00
36354;BME280;22383;51.114;13.666;2023-03-12T05:09:06;66865.09;;;-3.05;100.00
36354;BME280;22383;51.114;13.666;2023-03-12T05:11:33;66869.56;;;-3.01;100.00
36354;BME280;22383;51.114;13.666;2023-03-12T05:14:01;66870.69;;;-3.00;100.00
36354;BME280;22383;51.114;13.666;2023-03-12T05:16:29;66876.28;;;-2.95;100.00
36354;BME280;22383;51.114;13.666;2023-03-12T05:18:57;66881.34;;;-2.90;100.00
36354;BME280;22383;51.114;13.666;2023-03-12T05:21:25;66872.38;;;-2.98;100.00
36354;BME280;22383;51.114;13.666;2023-03-12T05:23:57;66821.88;;;-3.02;100.00
36354;BME280;22383;51.114;13.666;2023-03-12T05:26:30;66870.13;;;-3.00;100.00
36354;BME280;22383;51.114;13.666;2023-03-12T05:29:06;66869.56;;;-3.01;100.00
36354;BME280;22383;51.114;13.666;2023-03-12T05:31:33;66869.78;;;-2.98;100.00
36354;BME280;22383;51.114;13.666;2023-03-12T05:34:04;66831.38;;;-2.93;100.00
36354;BME280;22383;51.114;13.666;2023-03-12T05:36:36;66826.91;;;-2.97;100.00
36354;BME280;22383;51.114;13.666;2023-03-12T05:39:04;66826.56;;;-2.95;100.00
36354;BME280;22383;51.114;13.666;2023-03-12T05:41:33;66873.38;;;-2.93;100.00
36354;BME280;22383;51.114;13.666;2023-03-12T05:44:14;66877.06;;;-2.92;100.00
36354;BME280;22383;51.114;13.666;2023-03-12T05:46:45;66891.78;;;-2.83;100.00
36354;BME280;22383;51.114;13.666;2023-03-12T05:49:13;66895.94;;;-2.77;100.00
36354;BME280;22383;51.114;13.666;2023-03-12T05:51:40;66881.34;;;-2.90;100.00
36354;BME280;22383;51.114;13.666;2023-03-12T05:54:10;66870.00;;;-2.96;100.00
36354;BME280;22383;51.114;13.666;2023-03-12T05:56:38;66876.88;;;-2.94;100.00
36354;BME280;22383;51.114;13.666;2023-03-12T05:59:06;66880.28;;;-2.84;100.00
36354;BME280;22383;51.114;13.666;2023-03-12T06:01:34;66893.13;;;-2.79;100.00
36354;BME280;22383;51.114;13.666;2023-03-12T06:04:03;66893.91;;;-2.76;100.00
36354;BME280;22383;51.114;13.666;2023-03-12T06:06:31;66846.50;;;-2.79;100.00
36354;BME280;22383;51.114;13.666;2023-03-12T06:09:00;66889.28;;;-2.76;100.00
36354;BME280;22383;51.114;13.666;2023-03-12T06:11:28;66905.22;;;-2.71;100.00
36354;BME280;22383;51.114;13.666;2023-03-12T06:13:56;66910.13;;;-2.61;100.00
36354;BME280;22383;51.114;13.666;2023-03-12T06:16:25;66935.72;;;-2.40;100.00
36354;BME280;22383;51.114;13.666;2023-03-12T06:18:59;66894.50;;;-2.38;100.00
36354;BME280;22383;51.114;13.666;2023-03-12T06:21:33;66936.84;;;-2.39;100.00
36354;BME280;22383;51.114;13.666;2023-03-12T06:24:01;66941.31;;;-2.35;100.00
36354;BME280;22383;51.114;13.666;2023-03-12T06:26:39;66965.66;;;-2.11;100.00
36354;BME280;22383;51.114;13.666;2023-03-12T06:29:07;67002.47;;;-1.79;100.00
36354;BME280;22383;51.114;13.666;2023-03-12T06:31:35;66970.38;;;-1.66;100.00
36354;BME280;22383;51.114;13.666;2023-03-12T06:34:05;67011.47;;;-1.71;100.00
36354;BME280;22383;51.114;13.666;2023-03-12T06:36:32;67012.59;;;-1.70;100.00
36354;BME280;22383;51.114;13.666;2023-03-12T06:38:59;67021.19;;;-1.60;100.00
36354;BME280;22383;51.114;13.666;2023-03-12T06:41:27;67026.59;;;-1.57;100.00
36354;BME280;22383;51.114;13.666;2023-03-12T06:43:54;67023.66;;;-1.55;100.00
36354;BME280;22383;51.114;13.666;2023-03-12T06:46:23;67025.91;;;-1.53;100.00
36354;BME280;22383;51.114;13.666;2023-03-12T06:48:54;67054.69;;;-1.31;100.00
36354;BME280;22383;51.114;13.666;2023-03-12T06:51:22;67066.47;;;-1.21;100.00
36354;BME280;22383;51.114;13.666;2023-03-12T06:53:49;67058.44;;;-1.23;100.00
36354;BME280;22383;51.114;13.666;2023-03-12T06:56:16;67042.66;;;-1.45;100.00
36354;BME280;22383;51.114;13.666;2023-03-12T06:58:44;67042.31;;;-1.43;100.00
36354;BME280;22383;51.114;13.666;2023-03-12T07:01:11;67044.00;;;-1.41;100.00
36354;BME280;22383;51.114;13.666;2023-03-12T07:03:38;67060.50;;;-1.24;100.00
36354;BME280;22383;51.114;13.666;2023-03-12T07:06:13;67064.97;;;-1.20;100.00
36354;BME280;22383;51.114;13.666;2023-03-12T07:08:43;67054.16;;;-1.25;100.00
36354;BME280;22383;51.114;13.666;2023-03-12T07:11:11;67071.16;;;-1.14;100.00
36354;BME280;22383;51.114;13.666;2023-03-12T07:13:40;67073.06;;;-1.10;100.00
36354;BME280;22383;51.114;13.666;2023-03-12T07:16:09;67086.88;;;-1.00;100.00
36354;BME280;22383;51.114;13.666;2023-03-12T07:18:37;67092.06;;;-1.00;100.00
36354;BME280;22383;51.114;13.666;2023-03-12T07:21:04;67097.34;;;-0.92;100.00
36354;BME280;22383;51.114;13.666;2023-03-12T07:23:32;67092.84;;;-0.97;100.00
36354;BME280;22383;51.114;13.666;2023-03-12T07:25:59;67101.28;;;-0.89;100.00
36354;BME280;22383;51.114;13.666;2023-03-12T07:28:27;67104.28;;;-0.84;100.00
36354;BME280;22383;51.114;13.666;2023-03-12T07:30:59;67116.09;;;-0.73;100.00
36354;BME280;22383;51.114;13.666;2023-03-12T07:33:27;67118.31;;;-0.71;100.00
36354;BME280;22383;51.114;13.666;2023-03-12T07:35:55;67133.50;;;-0.57;100.00
36354;BME280;22383;51.114;13.666;2023-03-12T07:38:24;67149.00;;;-0.45;100.00
36354;BME280;22383;51.114;13.666;2023-03-12T07:40:53;67173.56;;;-0.18;100.00
36354;BME280;22383;51.114;13.666;2023-03-12T07:43:23;67181.44;;;-0.11;100.00
36354;BME280;22383;51.114;13.666;2023-03-12T07:45:54;67155.00;;;0.03;100.00
36354;BME280;22383;51.114;13.666;2023-03-12T07:48:21;67199.22;;;0.03;100.00
36354;BME280;22383;51.114;13.666;2023-03-12T07:50:49;67195.88;;;0.00;100.00
36354;BME280;22383;51.114;13.666;2023-03-12T07:53:16;67215.88;;;0.16;100.00
36354;BME280;22383;51.114;13.666;2023-03-12T07:55:45;67222.84;;;0.25;100.00
36354;BME280;22383;51.114;13.666;2023-03-12T07:58:14;67251.72;;;0.53;100.00
36354;BME280;22383;51.114;13.666;2023-03-12T08:00:42;67248.31;;;0.50;100.00
36354;BME280;22383;51.114;13.666;2023-03-12T08:03:11;67270.81;;;0.71;100.00
36354;BME280;22383;51.114;13.666;2023-03-12T08:05:39;67313.13;;;1.05;100.00
36354;BME280;22383;51.114;13.666;2023-03-12T08:08:06;67346.53;;;1.38;100.00
36354;BME280;22383;51.114;13.666;2023-03-12T08:10:35;67374.69;;;1.63;100.00
36354;BME280;22383;51.114;13.666;2023-03-12T08:13:02;67380.88;;;1.69;100.00
36354;BME280;22383;51.114;13.666;2023-03-12T08:15:30;67394.03;;;1.83;100.00
36354;BME280;22383;51.114;13.666;2023-03-12T08:17:57;67414.63;;;2.00;100.00
36354;BME280;22383;51.114;13.666;2023-03-12T08:20:25;67405.44;;;1.89;100.00
36354;BME280;22383;51.114;13.666;2023-03-12T08:22:53;67448.41;;;2.31;100.00
36354;BME280;22383;51.114;13.666;2023-03-12T08:25:20;67477.91;;;2.60;100.00
36354;BME280;22383;51.114;13.666;2023-03-12T08:27:50;67516.56;;;2.93;100.00
36354;BME280;22383;51.114;13.666;2023-03-12T08:30:18;67501.16;;;2.76;100.00
36354;BME280;22383;51.114;13.666;2023-03-12T08:32:45;67532.34;;;3.07;100.00
36354;BME280;22383;51.114;13.666;2023-03-12T08:35:13;67513.19;;;2.90;100.00
36354;BME280;22383;51.114;13.666;2023-03-12T08:37:41;67562.97;;;3.37;100.00
36354;BME280;22383;51.114;13.666;2023-03-12T08:40:11;67634.94;;;4.01;100.00
36354;BME280;22383;51.114;13.666;2023-03-12T08:42:43;67644.72;;;4.12;97.59
36354;BME280;22383;51.114;13.666;2023-03-12T08:45:11;67633.06;;;3.96;96.88
36354;BME280;22383;51.114;13.666;2023-03-12T08:47:39;67530.84;;;3.08;96.35
36354;BME280;22383;51.114;13.666;2023-03-12T08:50:10;67532.34;;;3.07;99.83
36354;BME280;22383;51.114;13.666;2023-03-12T08:52:38;67534.81;;;3.12;100.00
36354;BME280;22383;51.114;13.666;2023-03-12T08:55:06;67575.38;;;3.49;100.00
36354;BME280;22383;51.114;13.666;2023-03-12T08:57:34;67584.00;;;3.52;100.00
36354;BME280;22383;51.114;13.666;2023-03-12T09:00:03;67551.72;;;3.27;100.00
36354;BME280;22383;51.114;13.666;2023-03-12T09:02:32;67543.63;;;3.17;100.00
36354;BME280;22383;51.114;13.666;2023-03-12T09:05:03;67565.97;;;3.35;100.00
36354;BME280;22383;51.114;13.666;2023-03-12T09:07:31;67546.25;;;3.17;97.40
36354;BME280;22383;51.114;13.666;2023-03-12T09:09:58;67540.81;;;3.15;100.00
36354;BME280;22383;51.114;13.666;2023-03-12T09:12:26;67557.16;;;3.30;100.00
36354;BME280;22383;51.114;13.666;2023-03-12T09:14:54;67585.91;;;3.56;100.00
36354;BME280;22383;51.114;13.666;2023-03-12T09:17:30;67601.88;;;3.73;100.00
36354;BME280;22383;51.114;13.666;2023-03-12T09:19:58;67674.06;;;4.39;96.89
36354;BME280;22383;51.114;13.666;2023-03-12T09:22:28;67750.22;;;5.08;91.13
36354;BME280;22383;51.114;13.666;2023-03-12T09:24:56;67758.69;;;5.16;87.39
36354;BME280;22383;51.114;13.666;2023-03-12T09:27:24;67718.41;;;4.77;87.45
36354;BME280;22383;51.114;13.666;2023-03-12T09:29:53;67670.28;;;4.30;85.92
36354;BME280;22383;51.114;13.666;2023-03-12T09:32:27;67691.16;;;4.49;85.27
36354;BME280;22383;51.114;13.666;2023-03-12T09:34:54;67656.38;;;4.20;95.20
36354;BME280;22383;51.114;13.666;2023-03-12T09:37:22;67704.88;;;4.64;92.99
36354;BME280;22383;51.114;13.666;2023-03-12T09:39:51;67745.72;;;5.04;90.30
36354;BME280;22383;51.114;13.666;2023-03-12T09:44:52;67798.75;;;5.52;82.35
36354;BME280;22383;51.114;13.666;2023-03-12T09:47:30;67802.16;;;5.55;79.52
36354;BME280;22383;51.114;13.666;2023-03-12T09:50:05;67838.47;;;5.83;79.31
36354;BME280;22383;51.114;13.666;2023-03-12T09:53:09;67766.59;;;5.23;78.91
36354;BME280;22383;51.114;13.666;2023-03-12T09:55:41;67727.44;;;4.85;76.16
36354;BME280;22383;51.114;13.666;2023-03-12T09:58:30;67760.41;;;5.17;76.72
36354;BME280;22383;51.114;13.666;2023-03-12T10:24:35;67753.78;;;5.06;69.50
36354;BME280;22383;51.114;13.666;2023-03-12T10:27:14;67740.22;;;4.94;71.10
36354;BME280;22383;51.114;13.666;2023-03-12T10:29:45;67718.41;;;4.77;73.28
36354;BME280;22383;51.114;13.666;2023-03-12T10:34:55;67807.97;;;5.56;76.19
36354;BME280;22383;51.114;13.666;2023-03-12T10:37:52;67810.81;;;5.65;73.20
36354;BME280;22383;51.114;13.666;2023-03-12T10:40:29;67839.78;;;5.87;76.20
36354;BME280;22383;51.114;13.666;2023-03-12T10:42:58;67828.88;;;5.82;73.96
36354;BME280;22383;51.114;13.666;2023-03-12T10:48:21;67782.97;;;5.38;76.31
36354;BME280;22383;51.114;13.666;2023-03-12T10:51:01;67782.97;;;5.38;81.64
36354;BME280;22383;51.114;13.666;2023-03-12T10:53:35;67775.03;;;5.23;74.22
36354;BME280;22383;51.114;13.666;2023-03-12T10:56:17;67759.06;;;5.14;69.95
36354;BME280;22383;51.114;13.666;2023-03-12T10:58:47;67756.44;;;5.14;67.56
36354;BME280;22383;51.114;13.666;2023-03-12T11:01:19;67736.84;;;4.91;73.17
36354;BME280;22383;51.114;13.666;2023-03-12T11:03:49;67772.81;;;5.28;75.95
36354;BME280;22383;51.114;13.666;2023-03-12T11:06:23;67760.00;;;5.12;72.87
36354;BME280;22383;51.114;13.666;2023-03-12T11:11:48;67750.41;;;5.03;71.97
36354;BME280;22383;51.114;13.666;2023-03-12T11:14:21;67767.53;;;5.21;69.25
36354;BME280;22383;51.114;13.666;2023-03-12T11:16:50;67748.53;;;5.06;72.43
36354;BME280;22383;51.114;13.666;2023-03-12T11:19:31;67735.16;;;4.89;69.83
36354;BME280;22383;51.114;13.666;2023-03-12T11:22:03;67783.53;;;5.38;72.76
36354;BME280;22383;51.114;13.666;2023-03-12T11:24:32;67786.91;;;5.41;68.85
36354;BME280;22383;51.114;13.666;2023-03-12T11:27:43;67801.97;;;5.53;74.89
36354;BME280;22383;51.114;13.666;2023-03-12T11:30:14;67829.25;;;5.80;68.59
36354;BME280;22383;51.114;13.666;2023-03-12T11:32:48;67843.00;;;5.87;72.10
36354;BME280;22383;51.114;13.666;2023-03-12T11:35:20;67835.47;;;5.85;72.64
36354;BME280;22383;51.114;13.666;2023-03-12T11:38:02;67867.13;;;6.14;73.43
36354;BME280;22383;51.114;13.666;2023-03-12T11:46:43;67929.28;;;6.71;63.35
36354;BME280;22383;51.114;13.666;2023-03-12T11:49:26;67890.84;;;6.36;69.15
36354;BME280;22383;51.114;13.666;2023-03-12T11:58:01;67912.69;;;6.53;64.78
36354;BME280;22383;51.114;13.666;2023-03-12T12:03:43;67892.91;;;6.35;64.95
36354;BME280;22383;51.114;13.666;2023-03-12T12:06:35;67891.22;;;6.34;65.38
36354;BME280;22383;51.114;13.666;2023-03-12T12:09:13;67883.69;;;6.24;63.74
36354;BME280;22383;51.114;13.666;2023-03-12T12:14:24;67902.53;;;6.44;69.35
36354;BME280;22383;51.114;13.666;2023-03-12T12:19:55;67862.97;;;6.08;63.80
36354;BME280;22383;51.114;13.666;2023-03-12T12:23:08;67885.56;;;6.29;64.24
36354;BME280;22383;51.114;13.666;2023-03-12T12:34:52;67868.06;;;6.13;63.69
36354;BME280;22383;51.114;13.666;2023-03-12T12:40:15;67956.41;;;6.95;57.75
36354;BME280;22383;51.114;13.666;2023-03-12T12:45:19;67923.25;;;6.68;58.33
36354;BME280;22383;51.114;13.666;2023-03-12T12:48:02;67930.97;;;6.72;61.15
36354;BME280;22383;51.114;13.666;2023-03-12T12:50:36;67915.53;;;6.56;61.06
36354;BME280;22383;51.114;13.666;2023-03-12T12:53:13;67893.47;;;6.36;63.83
36354;BME280;22383;51.114;13.666;2023-03-12T13:01:07;67863.75;;;6.11;67.38
36354;BME280;22383;51.114;13.666;2023-03-12T13:03:36;67881.63;;;6.25;70.57
36354;BME280;22383;51.114;13.666;2023-03-12T13:06:05;67894.63;;;6.37;71.26
36354;BME280;22383;51.114;13.666;2023-03-12T13:08:57;67849.63;;;5.98;72.14
36354;BME280;22383;51.114;13.666;2023-03-12T13:11:42;67824.53;;;5.73;73.36
36354;BME280;22383;51.114;13.666;2023-03-12T13:14:14;67810.44;;;5.60;76.75
36354;BME280;22383;51.114;13.666;2023-03-12T13:16:43;67817.78;;;5.67;77.23
36354;BME280;22383;51.114;13.666;2023-03-12T13:22:01;67830.97;;;5.81;80.61
36354;BME280;22383;51.114;13.666;2023-03-12T13:24:32;67824.53;;;5.73;79.55
36354;BME280;22383;51.114;13.666;2023-03-12T13:33:11;67799.72;;;5.51;81.32
36354;BME280;22383;51.114;13.666;2023-03-12T13:35:39;67807.63;;;5.58;80.75
36354;BME280;22383;51.114;13.666;2023-03-12T13:38:11;67797.44;;;5.48;79.63
36354;BME280;22383;51.114;13.666;2023-03-12T13:43:46;67796.69;;;5.45;80.74
36354;BME280;22383;51.114;13.666;2023-03-12T13:48:44;67805.00;;;5.58;84.96
36354;BME280;22383;51.114;13.666;2023-03-12T13:51:19;67820.25;;;5.72;85.53
36354;BME280;22383;51.114;13.666;2023-03-12T13:53:59;67818.53;;;5.70;85.51
36354;BME280;22383;51.114;13.666;2023-03-12T13:56:31;67816.28;;;5.68;86.25
36354;BME280;22383;51.114;13.666;2023-03-12T13:59:02;67803.09;;;5.54;84.60
36354;BME280;22383;51.114;13.666;2023-03-12T14:01:53;67791.03;;;5.40;82.95
36354;BME280;22383;51.114;13.666;2023-03-12T14:04:32;67763.94;;;5.16;83.86
36354;BME280;22383;51.114;13.666;2023-03-12T14:07:20;67751.53;;;5.04;86.54
36354;BME280;22383;51.114;13.666;2023-03-12T14:15:48;67752.28;;;5.07;83.94
36354;BME280;22383;51.114;13.666;2023-03-12T14:18:23;67746.66;;;5.02;87.94
36354;BME280;22383;51.114;13.666;2023-03-12T14:20:58;67754.53;;;5.09;88.10
36354;BME280;22383;51.114;13.666;2023-03-12T14:23:35;67737.59;;;4.94;85.68
36354;BME280;22383;51.114;13.666;2023-03-12T14:26:04;67709.41;;;4.68;86.23
36354;BME280;22383;51.114;13.666;2023-03-12T14:28:39;67701.28;;;4.59;90.26
36354;BME280;22383;51.114;13.666;2023-03-12T14:31:27;67723.31;;;4.79;91.71
36354;BME280;22383;51.114;13.666;2023-03-12T14:34:16;67714.47;;;4.73;95.75
36354;BME280;22383;51.114;13.666;2023-03-12T14:39:34;67730.06;;;4.85;100.00
36354;BME280;22383;51.114;13.666;2023-03-12T14:42:06;67681.19;;;4.43;99.94
36354;BME280;22383;51.114;13.666;2023-03-12T14:44:37;67698.13;;;4.58;100.00
36354;BME280;22383;51.114;13.666;2023-03-12T14:47:08;67700.94;;;4.61;100.00
36354;BME280;22383;51.114;13.666;2023-03-12T14:49:40;67690.97;;;4.54;100.00
36354;BME280;22383;51.114;13.666;2023-03-12T14:52:13;67693.03;;;4.53;100.00